sensor_id;sensor_type;location;lat;lon;timestamp;P1;durP1;ratioP1;P2;durP2;ratioP2
249;SDS011;109;19.806;-70.704;2024-02-21T00:01:16;16.83;;;7.17;;
249;SDS011;109;19.806;-70.704;2024-02-21T00:03:45;16.57;;;6.80;;
249;SDS011;109;19.806;-70.704;2024-02-21T00:06:11;16.97;;;7.80;;
249;SDS011;109;19.806;-70.704;2024-02-21T00:08:38;14.30;;;7.67;;
249;SDS011;109;19.806;-70.704;2024-02-21T00:11:04;18.77;;;7.43;;
249;SDS011;109;19.806;-70.704;2024-02-21T00:13:31;20.00;;;8.47;;
249;SDS011;109;19.806;-70.704;2024-02-21T00:15:57;12.60;;;6.87;;
249;SDS011;109;19.806;-70.704;2024-02-21T00:18:26;15.57;;;7.50;;
249;SDS011;109;19.806;-70.704;2024-02-21T00:20:52;17.23;;;8.50;;
249;SDS011;109;19.806;-70.704;2024-02-21T00:23:19;23.47;;;8.17;;
249;SDS011;109;19.806;-70.704;2024-02-21T00:25:45;17.13;;;9.77;;
249;SDS011;109;19.806;-70.704;2024-02-21T00:28:11;15.30;;;9.40;;
249;SDS011;109;19.806;-70.704;2024-02-21T00:30:38;16.57;;;9.50;;
249;SDS011;109;19.806;-70.704;2024-02-21T00:33:11;24.33;;;10.80;;
249;SDS011;109;19.806;-70.704;2024-02-21T00:35:38;21.80;;;10.17;;
249;SDS011;109;19.806;-70.704;2024-02-21T00:38:10;22.60;;;9.57;;
249;SDS011;109;19.806;-70.704;2024-02-21T00:40:37;15.07;;;8.87;;
249;SDS011;109;19.806;-70.704;2024-02-21T00:43:09;20.50;;;7.87;;
249;SDS011;109;19.806;-70.704;2024-02-21T00:45:36;13.47;;;8.43;;
249;SDS011;109;19.806;-70.704;2024-02-21T00:48:08;16.03;;;7.73;;
249;SDS011;109;19.806;-70.704;2024-02-21T00:50:42;23.70;;;7.83;;
249;SDS011;109;19.806;-70.704;2024-02-21T00:53:22;22.50;;;8.40;;
249;SDS011;109;19.806;-70.704;2024-02-21T00:55:49;26.60;;;7.90;;
249;SDS011;109;19.806;-70.704;2024-02-21T00:58:22;19.30;;;7.87;;
249;SDS011;109;19.806;-70.704;2024-02-21T01:00:49;19.17;;;8.40;;
249;SDS011;109;19.806;-70.704;2024-02-21T01:03:21;14.30;;;7.70;;
249;SDS011;109;19.806;-70.704;2024-02-21T01:05:48;16.13;;;7.80;;
249;SDS011;109;19.806;-70.704;2024-02-21T01:08:20;14.00;;;7.90;;
249;SDS011;109;19.806;-70.704;2024-02-21T01:10:47;15.53;;;7.97;;
249;SDS011;109;19.806;-70.704;2024-02-21T01:13:19;16.70;;;8.17;;
249;SDS011;109;19.806;-70.704;2024-02-21T01:15:46;19.13;;;7.87;;
249;SDS011;109;19.806;-70.704;2024-02-21T01:18:18;14.17;;;7.50;;
249;SDS011;109;19.806;-70.704;2024-02-21T01:20:45;10.20;;;7.50;;
249;SDS011;109;19.806;-70.704;2024-02-21T01:23:17;10.90;;;7.60;;
249;SDS011;109;19.806;-70.704;2024-02-21T01:25:44;13.60;;;7.57;;
249;SDS011;109;19.806;-70.704;2024-02-21T01:28:17;11.97;;;7.20;;
249;SDS011;109;19.806;-70.704;2024-02-21T01:30:44;18.17;;;7.27;;
249;SDS011;109;19.806;-70.704;2024-02-21T01:33:17;19.50;;;7.00;;
249;SDS011;109;19.806;-70.704;2024-02-21T01:35:43;18.00;;;7.97;;
249;SDS011;109;19.806;-70.704;2024-02-21T01:38:16;12.27;;;8.70;;
249;SDS011;109;19.806;-70.704;2024-02-21T01:40:43;14.00;;;7.47;;
249;SDS011;109;19.806;-70.704;2024-02-21T01:43:16;11.70;;;7.60;;
249;SDS011;109;19.806;-70.704;2024-02-21T01:45:49;23.80;;;10.60;;
249;SDS011;109;19.806;-70.704;2024-02-21T01:48:23;17.20;;;9.83;;
249;SDS011;109;19.806;-70.704;2024-02-21T01:50:50;25.97;;;12.07;;
249;SDS011;109;19.806;-70.704;2024-02-21T01:53:34;21.10;;;11.40;;
249;SDS011;109;19.806;-70.704;2024-02-21T01:56:12;20.37;;;11.50;;
249;SDS011;109;19.806;-70.704;2024-02-21T01:58:40;15.43;;;10.50;;
249;SDS011;109;19.806;-70.704;2024-02-21T02:01:14;14.70;;;9.43;;
249;SDS011;109;19.806;-70.704;2024-02-21T02:03:42;20.30;;;9.93;;
249;SDS011;109;19.806;-70.704;2024-02-21T02:06:18;22.20;;;10.20;;
249;SDS011;109;19.806;-70.704;2024-02-21T02:08:44;16.50;;;9.80;;
249;SDS011;109;19.806;-70.704;2024-02-21T02:11:16;15.80;;;10.27;;
249;SDS011;109;19.806;-70.704;2024-02-21T02:13:43;22.67;;;9.50;;
249;SDS011;109;19.806;-70.704;2024-02-21T02:16:16;22.23;;;8.33;;
249;SDS011;109;19.806;-70.704;2024-02-21T02:18:43;23.47;;;6.53;;
249;SDS011;109;19.806;-70.704;2024-02-21T02:21:27;21.03;;;6.40;;
249;SDS011;109;19.806;-70.704;2024-02-21T02:24:05;24.27;;;7.33;;
249;SDS011;109;19.806;-70.704;2024-02-21T02:26:31;23.50;;;6.97;;
249;SDS011;109;19.806;-70.704;2024-02-21T02:29:04;29.07;;;7.30;;
249;SDS011;109;19.806;-70.704;2024-02-21T02:31:31;22.33;;;6.50;;
249;SDS011;109;19.806;-70.704;2024-02-21T02:34:04;19.83;;;6.67;;
249;SDS011;109;19.806;-70.704;2024-02-21T02:36:32;20.57;;;6.17;;
249;SDS011;109;19.806;-70.704;2024-02-21T02:39:05;29.60;;;7.70;;
249;SDS011;109;19.806;-70.704;2024-02-21T02:41:34;23.10;;;6.17;;
249;SDS011;109;19.806;-70.704;2024-02-21T02:44:09;32.73;;;7.03;;
249;SDS011;109;19.806;-70.704;2024-02-21T02:46:36;26.70;;;5.43;;
249;SDS011;109;19.806;-70.704;2024-02-21T02:49:08;24.00;;;6.63;;
249;SDS011;109;19.806;-70.704;2024-02-21T02:51:35;25.60;;;7.23;;
249;SDS011;109;19.806;-70.704;2024-02-21T02:54:07;17.03;;;6.07;;
249;SDS011;109;19.806;-70.704;2024-02-21T02:56:34;18.87;;;6.00;;
249;SDS011;109;19.806;-70.704;2024-02-21T02:59:06;15.60;;;5.50;;
249;SDS011;109;19.806;-70.704;2024-02-21T03:01:34;21.10;;;6.27;;
249;SDS011;109;19.806;-70.704;2024-02-21T03:04:07;26.80;;;6.40;;
249;SDS011;109;19.806;-70.704;2024-02-21T03:06:34;23.30;;;5.87;;
249;SDS011;109;19.806;-70.704;2024-02-21T03:09:08;27.20;;;6.60;;
249;SDS011;109;19.806;-70.704;2024-02-21T03:11:35;25.73;;;7.27;;
249;SDS011;109;19.806;-70.704;2024-02-21T03:14:08;24.03;;;6.90;;
249;SDS011;109;19.806;-70.704;2024-02-21T03:16:35;20.70;;;6.20;;
249;SDS011;109;19.806;-70.704;2024-02-21T03:19:07;27.80;;;6.40;;
249;SDS011;109;19.806;-70.704;2024-02-21T03:21:34;21.57;;;6.30;;
249;SDS011;109;19.806;-70.704;2024-02-21T03:24:06;23.50;;;6.20;;
249;SDS011;109;19.806;-70.704;2024-02-21T03:26:33;25.93;;;7.07;;
249;SDS011;109;19.806;-70.704;2024-02-21T03:29:05;29.83;;;7.10;;
249;SDS011;109;19.806;-70.704;2024-02-21T03:31:32;27.03;;;6.13;;
249;SDS011;109;19.806;-70.704;2024-02-21T03:34:04;18.07;;;6.07;;
249;SDS011;109;19.806;-70.704;2024-02-21T03:36:31;34.80;;;6.63;;
249;SDS011;109;19.806;-70.704;2024-02-21T03:39:03;23.70;;;6.60;;
249;SDS011;109;19.806;-70.704;2024-02-21T03:41:30;28.20;;;6.70;;
249;SDS011;109;19.806;-70.704;2024-02-21T03:44:03;25.97;;;5.93;;
249;SDS011;109;19.806;-70.704;2024-02-21T03:46:30;41.53;;;7.73;;
249;SDS011;109;19.806;-70.704;2024-02-21T03:49:03;17.30;;;6.27;;
249;SDS011;109;19.806;-70.704;2024-02-21T03:51:30;15.40;;;5.43;;
249;SDS011;109;19.806;-70.704;2024-02-21T03:54:04;26.37;;;6.40;;
249;SDS011;109;19.806;-70.704;2024-02-21T03:56:43;22.97;;;6.47;;
249;SDS011;109;19.806;-70.704;2024-02-21T03:59:10;25.47;;;6.10;;
249;SDS011;109;19.806;-70.704;2024-02-21T04:01:42;24.80;;;5.93;;
249;SDS011;109;19.806;-70.704;2024-02-21T04:04:09;39.80;;;6.60;;
249;SDS011;109;19.806;-70.704;2024-02-21T04:06:49;25.33;;;5.90;;
249;SDS011;109;19.806;-70.704;2024-02-21T04:09:22;31.73;;;6.07;;
249;SDS011;109;19.806;-70.704;2024-02-21T04:11:49;15.03;;;5.33;;
249;SDS011;109;19.806;-70.704;2024-02-21T04:14:21;15.73;;;5.50;;
249;SDS011;109;19.806;-70.704;2024-02-21T04:16:48;23.43;;;5.40;;
249;SDS011;109;19.806;-70.704;2024-02-21T04:19:20;21.00;;;5.83;;
249;SDS011;109;19.806;-70.704;2024-02-21T04:21:47;22.97;;;5.10;;
249;SDS011;109;19.806;-70.704;2024-02-21T04:24:20;28.17;;;6.20;;
249;SDS011;109;19.806;-70.704;2024-02-21T04:26:46;19.60;;;5.10;;
249;SDS011;109;19.806;-70.704;2024-02-21T04:29:18;29.33;;;5.97;;
249;SDS011;109;19.806;-70.704;2024-02-21T04:31:45;24.87;;;5.63;;
249;SDS011;109;19.806;-70.704;2024-02-21T04:34:17;27.10;;;6.30;;
249;SDS011;109;19.806;-70.704;2024-02-21T04:36:44;19.33;;;4.97;;
249;SDS011;109;19.806;-70.704;2024-02-21T04:39:16;24.83;;;5.57;;
249;SDS011;109;19.806;-70.704;2024-02-21T04:41:43;24.13;;;5.37;;
249;SDS011;109;19.806;-70.704;2024-02-21T04:44:16;23.83;;;5.17;;
249;SDS011;109;19.806;-70.704;2024-02-21T04:46:42;13.17;;;4.17;;
249;SDS011;109;19.806;-70.704;2024-02-21T04:49:15;16.10;;;4.63;;
249;SDS011;109;19.806;-70.704;2024-02-21T04:51:42;23.63;;;5.50;;
249;SDS011;109;19.806;-70.704;2024-02-21T04:54:15;22.17;;;5.03;;
249;SDS011;109;19.806;-70.704;2024-02-21T04:56:42;19.13;;;5.03;;
249;SDS011;109;19.806;-70.704;2024-02-21T04:59:14;25.33;;;5.80;;
249;SDS011;109;19.806;-70.704;2024-02-21T05:01:41;13.33;;;4.60;;
249;SDS011;109;19.806;-70.704;2024-02-21T05:04:13;21.90;;;5.27;;
249;SDS011;109;19.806;-70.704;2024-02-21T05:06:41;25.90;;;5.30;;
249;SDS011;109;19.806;-70.704;2024-02-21T05:09:14;15.63;;;4.10;;
249;SDS011;109;19.806;-70.704;2024-02-21T05:11:40;28.70;;;5.80;;
249;SDS011;109;19.806;-70.704;2024-02-21T05:14:13;25.00;;;4.50;;
249;SDS011;109;19.806;-70.704;2024-02-21T05:16:40;23.03;;;5.03;;
249;SDS011;109;19.806;-70.704;2024-02-21T05:19:13;17.10;;;4.23;;
249;SDS011;109;19.806;-70.704;2024-02-21T05:21:39;26.30;;;5.97;;
249;SDS011;109;19.806;-70.704;2024-02-21T05:24:12;35.43;;;5.47;;
249;SDS011;109;19.806;-70.704;2024-02-21T05:26:38;23.33;;;5.43;;
249;SDS011;109;19.806;-70.704;2024-02-21T05:29:10;23.03;;;5.43;;
249;SDS011;109;19.806;-70.704;2024-02-21T05:34:40;22.70;;;4.50;;
249;SDS011;109;19.806;-70.704;2024-02-21T05:37:06;24.90;;;5.33;;
249;SDS011;109;19.806;-70.704;2024-02-21T05:39:39;19.67;;;4.60;;
249;SDS011;109;19.806;-70.704;2024-02-21T05:42:05;14.97;;;4.47;;
249;SDS011;109;19.806;-70.704;2024-02-21T05:44:38;13.07;;;4.33;;
249;SDS011;109;19.806;-70.704;2024-02-21T05:47:04;13.77;;;4.50;;
249;SDS011;109;19.806;-70.704;2024-02-21T05:49:42;19.37;;;5.23;;
249;SDS011;109;19.806;-70.704;2024-02-21T05:52:08;20.13;;;4.23;;
249;SDS011;109;19.806;-70.704;2024-02-21T05:54:47;24.07;;;5.67;;
249;SDS011;109;19.806;-70.704;2024-02-21T05:57:22;35.80;;;5.20;;
249;SDS011;109;19.806;-70.704;2024-02-21T05:59:48;14.23;;;4.60;;
249;SDS011;109;19.806;-70.704;2024-02-21T06:02:21;18.23;;;4.97;;
249;SDS011;109;19.806;-70.704;2024-02-21T06:04:47;22.23;;;5.27;;
249;SDS011;109;19.806;-70.704;2024-02-21T06:07:20;26.90;;;5.73;;
249;SDS011;109;19.806;-70.704;2024-02-21T06:09:46;17.00;;;5.00;;
249;SDS011;109;19.806;-70.704;2024-02-21T06:12:19;21.13;;;4.80;;
249;SDS011;109;19.806;-70.704;2024-02-21T06:14:45;22.17;;;6.20;;
249;SDS011;109;19.806;-70.704;2024-02-21T06:17:18;20.17;;;5.63;;
249;SDS011;109;19.806;-70.704;2024-02-21T06:19:44;24.23;;;5.10;;
249;SDS011;109;19.806;-70.704;2024-02-21T06:22:17;31.30;;;6.50;;
249;SDS011;109;19.806;-70.704;2024-02-21T06:24:43;25.70;;;5.50;;
249;SDS011;109;19.806;-70.704;2024-02-21T06:27:16;25.13;;;5.30;;
249;SDS011;109;19.806;-70.704;2024-02-21T06:29:42;19.47;;;4.90;;
249;SDS011;109;19.806;-70.704;2024-02-21T06:32:16;25.73;;;5.27;;
249;SDS011;109;19.806;-70.704;2024-02-21T06:34:42;15.23;;;4.63;;
249;SDS011;109;19.806;-70.704;2024-02-21T06:37:16;33.03;;;5.77;;
249;SDS011;109;19.806;-70.704;2024-02-21T06:39:42;17.30;;;5.10;;
249;SDS011;109;19.806;-70.704;2024-02-21T06:42:16;21.40;;;4.90;;
249;SDS011;109;19.806;-70.704;2024-02-21T06:44:42;24.17;;;5.17;;
249;SDS011;109;19.806;-70.704;2024-02-21T06:47:17;23.47;;;5.60;;
249;SDS011;109;19.806;-70.704;2024-02-21T06:49:43;30.43;;;6.10;;
249;SDS011;109;19.806;-70.704;2024-02-21T06:52:21;26.60;;;6.27;;
249;SDS011;109;19.806;-70.704;2024-02-21T06:55:01;23.70;;;5.30;;
249;SDS011;109;19.806;-70.704;2024-02-21T06:57:28;29.80;;;5.40;;
249;SDS011;109;19.806;-70.704;2024-02-21T07:00:02;20.90;;;4.50;;
249;SDS011;109;19.806;-70.704;2024-02-21T07:02:28;25.53;;;4.60;;
249;SDS011;109;19.806;-70.704;2024-02-21T07:05:02;23.63;;;5.00;;
249;SDS011;109;19.806;-70.704;2024-02-21T07:07:28;16.80;;;4.63;;
249;SDS011;109;19.806;-70.704;2024-02-21T07:10:02;23.63;;;5.00;;
249;SDS011;109;19.806;-70.704;2024-02-21T07:12:30;23.07;;;5.37;;
249;SDS011;109;19.806;-70.704;2024-02-21T07:15:03;17.13;;;4.37;;
249;SDS011;109;19.806;-70.704;2024-02-21T07:17:30;19.80;;;5.90;;
249;SDS011;109;19.806;-70.704;2024-02-21T07:20:03;30.67;;;5.73;;
249;SDS011;109;19.806;-70.704;2024-02-21T07:22:29;18.17;;;4.73;;
249;SDS011;109;19.806;-70.704;2024-02-21T07:25:03;26.37;;;5.97;;
249;SDS011;109;19.806;-70.704;2024-02-21T07:27:29;34.47;;;5.80;;
249;SDS011;109;19.806;-70.704;2024-02-21T07:30:04;33.10;;;5.30;;
249;SDS011;109;19.806;-70.704;2024-02-21T07:32:31;21.00;;;5.30;;
249;SDS011;109;19.806;-70.704;2024-02-21T07:35:04;27.33;;;5.57;;
249;SDS011;109;19.806;-70.704;2024-02-21T07:37:31;35.63;;;5.20;;
249;SDS011;109;19.806;-70.704;2024-02-21T07:40:05;32.37;;;5.70;;
249;SDS011;109;19.806;-70.704;2024-02-21T07:42:32;39.57;;;7.13;;
249;SDS011;109;19.806;-70.704;2024-02-21T07:45:06;24.63;;;6.13;;
249;SDS011;109;19.806;-70.704;2024-02-21T07:47:34;27.30;;;5.83;;
249;SDS011;109;19.806;-70.704;2024-02-21T07:50:07;17.33;;;4.30;;
249;SDS011;109;19.806;-70.704;2024-02-21T07:52:34;24.63;;;5.30;;
249;SDS011;109;19.806;-70.704;2024-02-21T07:55:14;50.07;;;6.60;;
249;SDS011;109;19.806;-70.704;2024-02-21T07:57:47;43.83;;;6.77;;
249;SDS011;109;19.806;-70.704;2024-02-21T08:00:13;40.83;;;6.23;;
249;SDS011;109;19.806;-70.704;2024-02-21T08:02:52;19.93;;;5.00;;
249;SDS011;109;19.806;-70.704;2024-02-21T08:05:18;19.17;;;4.50;;
249;SDS011;109;19.806;-70.704;2024-02-21T08:07:52;26.00;;;4.97;;
249;SDS011;109;19.806;-70.704;2024-02-21T08:10:18;22.93;;;5.37;;
249;SDS011;109;19.806;-70.704;2024-02-21T08:12:51;33.83;;;6.10;;
249;SDS011;109;19.806;-70.704;2024-02-21T08:15:17;33.23;;;5.60;;
249;SDS011;109;19.806;-70.704;2024-02-21T08:17:50;50.30;;;6.50;;
249;SDS011;109;19.806;-70.704;2024-02-21T08:20:16;29.77;;;6.20;;
249;SDS011;109;19.806;-70.704;2024-02-21T08:22:49;32.97;;;5.13;;
249;SDS011;109;19.806;-70.704;2024-02-21T08:25:15;32.53;;;6.37;;
249;SDS011;109;19.806;-70.704;2024-02-21T08:27:48;23.00;;;4.30;;
249;SDS011;109;19.806;-70.704;2024-02-21T08:30:14;29.50;;;5.33;;
249;SDS011;109;19.806;-70.704;2024-02-21T08:32:48;24.53;;;4.53;;
249;SDS011;109;19.806;-70.704;2024-02-21T08:35:15;36.97;;;6.00;;
249;SDS011;109;19.806;-70.704;2024-02-21T08:37:51;34.57;;;5.80;;
249;SDS011;109;19.806;-70.704;2024-02-21T08:40:18;22.70;;;5.10;;
249;SDS011;109;19.806;-70.704;2024-02-21T08:42:53;25.30;;;4.63;;
249;SDS011;109;19.806;-70.704;2024-02-21T08:45:19;21.47;;;4.90;;
249;SDS011;109;19.806;-70.704;2024-02-21T08:47:52;32.33;;;5.43;;
249;SDS011;109;19.806;-70.704;2024-02-21T08:50:18;35.43;;;5.70;;
249;SDS011;109;19.806;-70.704;2024-02-21T08:52:51;31.43;;;5.60;;
249;SDS011;109;19.806;-70.704;2024-02-21T08:55:32;30.40;;;6.43;;
249;SDS011;109;19.806;-70.704;2024-02-21T08:57:58;13.87;;;4.43;;
249;SDS011;109;19.806;-70.704;2024-02-21T09:00:33;17.07;;;3.93;;
249;SDS011;109;19.806;-70.704;2024-02-21T09:02:59;27.47;;;4.73;;
249;SDS011;109;19.806;-70.704;2024-02-21T09:05:32;20.10;;;4.13;;
249;SDS011;109;19.806;-70.704;2024-02-21T09:08:00;24.87;;;4.80;;
249;SDS011;109;19.806;-70.704;2024-02-21T09:10:33;20.83;;;4.53;;
249;SDS011;109;19.806;-70.704;2024-02-21T09:12:59;16.67;;;4.27;;
249;SDS011;109;19.806;-70.704;2024-02-21T09:15:32;15.70;;;4.67;;
249;SDS011;109;19.806;-70.704;2024-02-21T09:17:58;13.10;;;4.57;;
249;SDS011;109;19.806;-70.704;2024-02-21T09:20:31;35.73;;;5.40;;
249;SDS011;109;19.806;-70.704;2024-02-21T09:22:57;17.27;;;4.77;;
249;SDS011;109;19.806;-70.704;2024-02-21T09:25:30;29.90;;;5.30;;
249;SDS011;109;19.806;-70.704;2024-02-21T09:27:57;22.97;;;5.17;;
249;SDS011;109;19.806;-70.704;2024-02-21T09:30:30;27.23;;;4.97;;
249;SDS011;109;19.806;-70.704;2024-02-21T09:32:56;21.00;;;4.53;;
249;SDS011;109;19.806;-70.704;2024-02-21T09:35:32;25.20;;;5.63;;
249;SDS011;109;19.806;-70.704;2024-02-21T09:37:59;38.70;;;8.27;;
249;SDS011;109;19.806;-70.704;2024-02-21T09:40:33;17.50;;;4.30;;
249;SDS011;109;19.806;-70.704;2024-02-21T09:43:10;23.80;;;4.50;;
249;SDS011;109;19.806;-70.704;2024-02-21T09:45:37;14.13;;;4.43;;
249;SDS011;109;19.806;-70.704;2024-02-21T09:48:22;19.77;;;4.60;;
249;SDS011;109;19.806;-70.704;2024-02-21T09:50:56;13.33;;;4.00;;
249;SDS011;109;19.806;-70.704;2024-02-21T09:53:25;24.43;;;4.37;;
249;SDS011;109;19.806;-70.704;2024-02-21T09:55:59;11.13;;;4.10;;
249;SDS011;109;19.806;-70.704;2024-02-21T09:58:26;35.83;;;5.77;;
249;SDS011;109;19.806;-70.704;2024-02-21T10:01:00;26.63;;;5.13;;
249;SDS011;109;19.806;-70.704;2024-02-21T10:03:26;17.60;;;5.00;;
249;SDS011;109;19.806;-70.704;2024-02-21T10:05:59;19.33;;;4.33;;
249;SDS011;109;19.806;-70.704;2024-02-21T10:08:28;19.63;;;4.40;;
249;SDS011;109;19.806;-70.704;2024-02-21T10:11:01;16.43;;;4.37;;
249;SDS011;109;19.806;-70.704;2024-02-21T10:13:29;20.00;;;4.40;;
249;SDS011;109;19.806;-70.704;2024-02-21T10:16:02;18.83;;;4.40;;
249;SDS011;109;19.806;-70.704;2024-02-21T10:18:29;18.70;;;4.40;;
249;SDS011;109;19.806;-70.704;2024-02-21T10:21:05;20.53;;;4.50;;
249;SDS011;109;19.806;-70.704;2024-02-21T10:26:19;12.53;;;3.90;;
249;SDS011;109;19.806;-70.704;2024-02-21T10:28:49;16.87;;;3.40;;
249;SDS011;109;19.806;-70.704;2024-02-21T10:31:24;10.73;;;3.97;;
249;SDS011;109;19.806;-70.704;2024-02-21T10:33:55;18.93;;;4.00;;
249;SDS011;109;19.806;-70.704;2024-02-21T10:36:37;18.80;;;4.27;;
249;SDS011;109;19.806;-70.704;2024-02-21T10:39:03;21.60;;;4.80;;
249;SDS011;109;19.806;-70.704;2024-02-21T10:41:36;20.03;;;4.00;;
249;SDS011;109;19.806;-70.704;2024-02-21T10:44:04;14.23;;;3.87;;
249;SDS011;109;19.806;-70.704;2024-02-21T10:46:32;19.87;;;3.80;;
249;SDS011;109;19.806;-70.704;2024-02-21T10:51:43;11.80;;;3.70;;
249;SDS011;109;19.806;-70.704;2024-02-21T10:54:22;15.50;;;4.10;;
249;SDS011;109;19.806;-70.704;2024-02-21T10:57:07;17.47;;;4.03;;
249;SDS011;109;19.806;-70.704;2024-02-21T10:59:37;20.70;;;3.90;;
249;SDS011;109;19.806;-70.704;2024-02-21T11:02:06;13.67;;;4.30;;
249;SDS011;109;19.806;-70.704;2024-02-21T11:04:32;9.07;;;3.20;;
249;SDS011;109;19.806;-70.704;2024-02-21T11:07:02;12.70;;;3.80;;
249;SDS011;109;19.806;-70.704;2024-02-21T11:09:31;14.03;;;4.20;;
249;SDS011;109;19.806;-70.704;2024-02-21T11:12:04;8.40;;;3.30;;
249;SDS011;109;19.806;-70.704;2024-02-21T11:14:32;8.50;;;3.00;;
249;SDS011;109;19.806;-70.704;2024-02-21T11:17:02;13.07;;;3.10;;
249;SDS011;109;19.806;-70.704;2024-02-21T11:19:40;11.60;;;4.00;;
249;SDS011;109;19.806;-70.704;2024-02-21T11:22:06;8.07;;;3.50;;
249;SDS011;109;19.806;-70.704;2024-02-21T11:24:42;5.73;;;3.30;;
249;SDS011;109;19.806;-70.704;2024-02-21T11:29:46;7.33;;;3.17;;
249;SDS011;109;19.806;-70.704;2024-02-21T11:32:20;9.10;;;3.00;;
249;SDS011;109;19.806;-70.704;2024-02-21T11:34:56;6.30;;;3.23;;
249;SDS011;109;19.806;-70.704;2024-02-21T11:37:31;4.90;;;2.70;;
249;SDS011;109;19.806;-70.704;2024-02-21T11:40:09;6.23;;;2.97;;
249;SDS011;109;19.806;-70.704;2024-02-21T11:42:35;5.47;;;2.50;;
249;SDS011;109;19.806;-70.704;2024-02-21T11:45:02;7.40;;;3.20;;
249;SDS011;109;19.806;-70.704;2024-02-21T11:47:29;3.93;;;3.03;;
249;SDS011;109;19.806;-70.704;2024-02-21T11:49:55;7.80;;;2.97;;
249;SDS011;109;19.806;-70.704;2024-02-21T11:52:22;8.40;;;3.10;;
249;SDS011;109;19.806;-70.704;2024-02-21T11:54:53;7.40;;;3.47;;
249;SDS011;109;19.806;-70.704;2024-02-21T11:57:23;7.33;;;4.17;;
249;SDS011;109;19.806;-70.704;2024-02-21T11:59:50;9.53;;;3.20;;
249;SDS011;109;19.806;-70.704;2024-02-21T12:02:20;6.80;;;3.70;;
249;SDS011;109;19.806;-70.704;2024-02-21T12:04:46;3.23;;;2.50;;
249;SDS011;109;19.806;-70.704;2024-02-21T12:07:14;5.83;;;3.30;;
249;SDS011;109;19.806;-70.704;2024-02-21T12:09:41;4.33;;;2.77;;
249;SDS011;109;19.806;-70.704;2024-02-21T12:12:08;7.27;;;2.63;;
249;SDS011;109;19.806;-70.704;2024-02-21T12:14:34;4.20;;;2.70;;
249;SDS011;109;19.806;-70.704;2024-02-21T12:17:01;7.73;;;2.80;;
249;SDS011;109;19.806;-70.704;2024-02-21T12:19:30;7.30;;;3.30;;
249;SDS011;109;19.806;-70.704;2024-02-21T12:22:00;6.03;;;2.90;;
249;SDS011;109;19.806;-70.704;2024-02-21T12:24:27;6.33;;;3.07;;
249;SDS011;109;19.806;-70.704;2024-02-21T12:26:55;5.17;;;2.90;;
249;SDS011;109;19.806;-70.704;2024-02-21T12:29:22;3.97;;;3.23;;
249;SDS011;109;19.806;-70.704;2024-02-21T12:31:52;7.00;;;2.90;;
249;SDS011;109;19.806;-70.704;2024-02-21T12:34:20;4.70;;;2.90;;
249;SDS011;109;19.806;-70.704;2024-02-21T12:36:47;8.10;;;3.30;;
249;SDS011;109;19.806;-70.704;2024-02-21T12:39:14;4.43;;;3.10;;
249;SDS011;109;19.806;-70.704;2024-02-21T12:41:41;10.83;;;3.43;;
249;SDS011;109;19.806;-70.704;2024-02-21T12:44:10;4.67;;;2.77;;
249;SDS011;109;19.806;-70.704;2024-02-21T12:46:38;7.60;;;3.20;;
249;SDS011;109;19.806;-70.704;2024-02-21T12:49:05;5.77;;;3.10;;
249;SDS011;109;19.806;-70.704;2024-02-21T12:51:33;4.33;;;3.07;;
249;SDS011;109;19.806;-70.704;2024-02-21T12:54:00;5.27;;;2.83;;
249;SDS011;109;19.806;-70.704;2024-02-21T12:56:30;7.40;;;2.73;;
249;SDS011;109;19.806;-70.704;2024-02-21T12:58:57;3.97;;;2.40;;
249;SDS011;109;19.806;-70.704;2024-02-21T13:01:23;2.60;;;2.40;;
249;SDS011;109;19.806;-70.704;2024-02-21T13:03:50;6.43;;;2.93;;
249;SDS011;109;19.806;-70.704;2024-02-21T13:06:16;9.73;;;2.90;;
249;SDS011;109;19.806;-70.704;2024-02-21T13:08:44;7.30;;;2.80;;
249;SDS011;109;19.806;-70.704;2024-02-21T13:11:12;5.03;;;2.57;;
249;SDS011;109;19.806;-70.704;2024-02-21T13:13:38;8.97;;;2.97;;
249;SDS011;109;19.806;-70.704;2024-02-21T13:16:05;5.20;;;3.00;;
249;SDS011;109;19.806;-70.704;2024-02-21T13:18:31;5.93;;;2.90;;
249;SDS011;109;19.806;-70.704;2024-02-21T13:20:58;5.70;;;3.40;;
249;SDS011;109;19.806;-70.704;2024-02-21T13:23:24;6.00;;;2.87;;
249;SDS011;109;19.806;-70.704;2024-02-21T13:25:51;6.47;;;2.80;;
249;SDS011;109;19.806;-70.704;2024-02-21T13:28:17;11.03;;;3.67;;
249;SDS011;109;19.806;-70.704;2024-02-21T13:30:43;7.53;;;2.97;;
249;SDS011;109;19.806;-70.704;2024-02-21T13:33:10;5.53;;;3.20;;
249;SDS011;109;19.806;-70.704;2024-02-21T13:35:37;4.90;;;2.93;;
249;SDS011;109;19.806;-70.704;2024-02-21T13:38:04;8.77;;;3.23;;
249;SDS011;109;19.806;-70.704;2024-02-21T13:40:30;4.07;;;2.70;;
249;SDS011;109;19.806;-70.704;2024-02-21T13:42:57;5.83;;;2.83;;
249;SDS011;109;19.806;-70.704;2024-02-21T13:45:23;8.97;;;3.00;;
249;SDS011;109;19.806;-70.704;2024-02-21T13:47:50;10.70;;;3.00;;
249;SDS011;109;19.806;-70.704;2024-02-21T13:50:16;10.63;;;3.00;;
249;SDS011;109;19.806;-70.704;2024-02-21T13:52:43;5.90;;;3.10;;
249;SDS011;109;19.806;-70.704;2024-02-21T13:55:10;7.87;;;2.63;;
249;SDS011;109;19.806;-70.704;2024-02-21T13:57:36;10.30;;;3.00;;
249;SDS011;109;19.806;-70.704;2024-02-21T14:00:03;10.37;;;3.27;;
249;SDS011;109;19.806;-70.704;2024-02-21T14:02:37;8.60;;;3.43;;
249;SDS011;109;19.806;-70.704;2024-02-21T14:05:04;9.10;;;3.80;;
249;SDS011;109;19.806;-70.704;2024-02-21T14:07:31;11.60;;;5.33;;
249;SDS011;109;19.806;-70.704;2024-02-21T14:10:01;15.40;;;4.50;;
249;SDS011;109;19.806;-70.704;2024-02-21T14:12:29;15.70;;;5.93;;
249;SDS011;109;19.806;-70.704;2024-02-21T14:14:55;7.97;;;4.60;;
249;SDS011;109;19.806;-70.704;2024-02-21T14:17:24;6.47;;;4.10;;
249;SDS011;109;19.806;-70.704;2024-02-21T14:19:50;9.90;;;4.60;;
249;SDS011;109;19.806;-70.704;2024-02-21T14:22:19;10.10;;;3.83;;
249;SDS011;109;19.806;-70.704;2024-02-21T14:24:46;8.00;;;3.80;;
249;SDS011;109;19.806;-70.704;2024-02-21T14:27:12;7.60;;;3.07;;
249;SDS011;109;19.806;-70.704;2024-02-21T14:29:39;6.97;;;3.20;;
249;SDS011;109;19.806;-70.704;2024-02-21T14:32:05;3.93;;;3.10;;
249;SDS011;109;19.806;-70.704;2024-02-21T14:34:32;7.83;;;3.03;;
249;SDS011;109;19.806;-70.704;2024-02-21T14:36:59;11.97;;;3.00;;
249;SDS011;109;19.806;-70.704;2024-02-21T14:39:25;8.43;;;2.87;;
249;SDS011;109;19.806;-70.704;2024-02-21T14:41:53;10.20;;;3.50;;
249;SDS011;109;19.806;-70.704;2024-02-21T14:44:20;12.57;;;3.80;;
249;SDS011;109;19.806;-70.704;2024-02-21T14:46:47;7.00;;;2.80;;
249;SDS011;109;19.806;-70.704;2024-02-21T14:49:13;6.53;;;2.90;;
249;SDS011;109;19.806;-70.704;2024-02-21T14:51:39;8.13;;;4.13;;
249;SDS011;109;19.806;-70.704;2024-02-21T14:54:06;8.17;;;3.17;;
249;SDS011;109;19.806;-70.704;2024-02-21T14:56:33;4.47;;;3.07;;
249;SDS011;109;19.806;-70.704;2024-02-21T14:59:00;6.17;;;3.10;;
249;SDS011;109;19.806;-70.704;2024-02-21T15:01:26;9.80;;;3.07;;
249;SDS011;109;19.806;-70.704;2024-02-21T15:03:53;9.40;;;2.93;;
249;SDS011;109;19.806;-70.704;2024-02-21T15:06:19;10.43;;;2.80;;
249;SDS011;109;19.806;-70.704;2024-02-21T15:08:46;8.13;;;2.50;;
249;SDS011;109;19.806;-70.704;2024-02-21T15:11:14;11.40;;;7.40;;
249;SDS011;109;19.806;-70.704;2024-02-21T15:13:40;9.50;;;3.93;;
249;SDS011;109;19.806;-70.704;2024-02-21T15:16:06;14.00;;;3.30;;
249;SDS011;109;19.806;-70.704;2024-02-21T15:18:33;10.57;;;2.80;;
249;SDS011;109;19.806;-70.704;2024-02-21T15:21:01;10.13;;;2.80;;
249;SDS011;109;19.806;-70.704;2024-02-21T15:23:28;14.57;;;3.10;;
249;SDS011;109;19.806;-70.704;2024-02-21T15:25:55;13.47;;;2.90;;
249;SDS011;109;19.806;-70.704;2024-02-21T15:28:21;6.87;;;2.60;;
249;SDS011;109;19.806;-70.704;2024-02-21T15:30:47;9.63;;;3.57;;